createdAt,value
2019-01-30T00:00:24.116Z,0.90
2019-01-30T00:02:58.373Z,0.90
2019-01-30T00:05:31.651Z,0.80
2019-01-30T00:08:01.989Z,0.90
2019-01-30T00:10:32.369Z,0.90
2019-01-30T00:13:02.726Z,0.90
2019-01-30T00:15:33.005Z,0.90
2019-01-30T00:18:03.481Z,0.90
2019-01-30T00:20:33.819Z,0.90
2019-01-30T00:23:05.776Z,0.90
2019-01-30T00:25:36.099Z,0.90
2019-01-30T00:28:06.426Z,0.90
2019-01-30T00:30:36.891Z,0.90
2019-01-30T00:33:07.396Z,0.90
2019-01-30T00:35:37.702Z,0.90
2019-01-30T00:38:08.013Z,0.90
2019-01-30T00:40:38.334Z,0.80
2019-01-30T00:43:08.804Z,0.90
2019-01-30T00:45:39.287Z,0.90
2019-01-30T00:48:09.776Z,0.90
2019-01-30T00:50:41.552Z,0.90
2019-01-30T00:53:11.943Z,0.90
2019-01-30T00:55:44.010Z,0.80
2019-01-30T00:58:14.335Z,0.80
2019-01-30T01:00:44.593Z,0.80
2019-01-30T01:03:15.055Z,0.70
2019-01-30T01:05:45.374Z,0.70
2019-01-30T01:08:15.792Z,0.80
2019-01-30T01:10:46.150Z,0.80
2019-01-30T01:13:16.448Z,0.70
2019-01-30T01:15:46.786Z,0.80
2019-01-30T01:18:17.102Z,0.80
2019-01-30T01:20:47.554Z,0.80
2019-01-30T01:23:19.238Z,0.80
2019-01-30T01:25:49.497Z,0.80
2019-01-30T01:28:20.951Z,0.80
2019-01-30T01:30:51.263Z,0.80
2019-01-30T01:33:21.911Z,0.80
2019-01-30T01:35:52.147Z,0.80
2019-01-30T01:38:23.134Z,0.80
2019-01-30T01:40:53.423Z,0.70
2019-01-30T01:43:25.112Z,0.70
2019-01-30T01:45:57.044Z,0.70
2019-01-30T01:48:27.388Z,0.80
2019-01-30T01:50:57.727Z,0.70
2019-01-30T01:53:28.193Z,0.70
2019-01-30T01:55:58.586Z,0.80
2019-01-30T01:58:28.898Z,0.80
2019-01-30T02:00:59.297Z,0.80
2019-01-30T02:03:29.860Z,0.80
2019-01-30T02:06:00.228Z,0.80
2019-01-30T02:08:30.544Z,0.80
2019-01-30T02:11:00.966Z,0.80
2019-01-30T02:13:31.413Z,0.80
2019-01-30T02:16:01.727Z,0.80
2019-01-30T02:18:32.093Z,0.80
2019-01-30T02:21:03.985Z,0.80
2019-01-30T02:23:34.407Z,0.80
2019-01-30T02:26:04.857Z,0.80
2019-01-30T02:28:35.293Z,0.80
2019-01-30T02:31:05.559Z,0.80
2019-01-30T02:33:35.847Z,0.70
2019-01-30T02:36:06.122Z,0.70
2019-01-30T02:38:36.488Z,0.70
2019-01-30T02:41:06.786Z,0.70
2019-01-30T02:43:37.224Z,0.70
2019-01-30T02:46:07.594Z,0.70
2019-01-30T02:48:38.052Z,0.70
2019-01-30T02:51:08.597Z,0.60
2019-01-30T02:53:39.071Z,0.60
2019-01-30T02:56:09.726Z,0.60
2019-01-30T02:58:40.151Z,0.60
2019-01-30T03:01:11.819Z,0.60
2019-01-30T03:03:42.943Z,0.60
2019-01-30T03:06:13.240Z,0.60
2019-01-30T03:08:43.707Z,0.60
2019-01-30T03:11:14.364Z,0.60
2019-01-30T03:13:44.655Z,0.60
2019-01-30T03:16:15.063Z,0.60
2019-01-30T03:18:45.425Z,0.60
2019-01-30T03:21:17.288Z,0.60
2019-01-30T03:23:47.647Z,0.60
2019-01-30T03:26:18.006Z,0.60
2019-01-30T03:28:48.350Z,0.60
2019-01-30T03:31:19.491Z,0.60
2019-01-30T03:33:50.180Z,0.60
2019-01-30T03:36:20.536Z,0.50
2019-01-30T03:38:50.862Z,0.60
2019-01-30T03:41:21.222Z,0.50
2019-01-30T03:43:51.536Z,0.50
2019-01-30T03:46:21.942Z,0.50
2019-01-30T03:48:52.269Z,0.50
2019-01-30T03:51:22.572Z,0.60
2019-01-30T03:53:52.953Z,0.50
2019-01-30T03:56:24.357Z,0.50
2019-01-30T03:58:54.786Z,0.50
2019-01-30T04:01:26.621Z,0.50
2019-01-30T04:03:57.105Z,0.50
2019-01-30T04:06:27.490Z,0.50
2019-01-30T04:08:57.920Z,0.50
2019-01-30T04:11:28.305Z,0.50
2019-01-30T04:14:00.679Z,0.40
2019-01-30T04:16:30.689Z,0.40
2019-01-30T04:19:01.000Z,0.40
2019-01-30T04:21:31.321Z,0.40
2019-01-30T04:24:01.600Z,0.40
2019-01-30T04:26:31.929Z,0.40
2019-01-30T04:29:02.220Z,0.30
2019-01-30T04:31:38.224Z,0.30
2019-01-30T04:34:04.811Z,0.30
2019-01-30T04:36:35.845Z,0.30
2019-01-30T04:39:08.276Z,0.30
2019-01-30T04:41:38.772Z,0.20
2019-01-30T04:44:09.064Z,0.20
2019-01-30T04:46:39.378Z,0.30
2019-01-30T04:49:09.645Z,0.20
2019-01-30T04:51:39.998Z,0.20
2019-01-30T04:54:10.398Z,0.20
2019-01-30T04:56:40.752Z,0.20
2019-01-30T04:59:11.056Z,0.20
2019-01-30T05:01:49.467Z,0.20
2019-01-30T05:04:13.462Z,0.20
2019-01-30T05:06:43.956Z,0.20
2019-01-30T05:09:14.424Z,0.20
2019-01-30T05:11:44.693Z,0.20
2019-01-30T05:14:15.027Z,0.20
2019-01-30T05:16:45.696Z,0.20
2019-01-30T05:19:16.100Z,0.20
2019-01-30T05:21:46.427Z,0.10
2019-01-30T05:24:16.740Z,0.10
2019-01-30T05:26:47.174Z,0.10
2019-01-30T05:29:17.606Z,0.10
2019-01-30T05:31:48.145Z,0.10
2019-01-30T05:34:18.474Z,0.10
2019-01-30T05:36:48.782Z,0.10
2019-01-30T05:39:19.110Z,0.10
2019-01-30T05:41:49.446Z,0.10
2019-01-30T05:44:19.725Z,0.10
2019-01-30T05:46:50.085Z,0.10
2019-01-30T05:49:21.819Z,0.00
2019-01-30T05:52:01.296Z,0.00
2019-01-30T05:54:31.599Z,0.00
2019-01-30T05:57:02.763Z,0.00
2019-01-30T05:59:33.069Z,0.10
2019-01-30T06:02:12.055Z,0.10
2019-01-30T06:04:38.254Z,0.10
2019-01-30T06:07:08.656Z,0.00
2019-01-30T06:09:39.087Z,0.00
2019-01-30T06:12:11.829Z,0.00
2019-01-30T06:14:42.197Z,0.00
2019-01-30T06:17:14.698Z,0.00
2019-01-30T06:19:45.227Z,0.10
2019-01-30T06:22:15.695Z,0.10
2019-01-30T06:24:46.403Z,0.00
2019-01-30T06:27:17.597Z,0.00
2019-01-30T06:29:48.011Z,0.00
2019-01-30T06:32:21.880Z,0.10
2019-01-30T06:34:50.282Z,0.10
2019-01-30T06:37:20.598Z,0.10
2019-01-30T06:39:51.034Z,0.10
2019-01-30T06:42:21.347Z,0.10
2019-01-30T06:44:51.604Z,0.10
2019-01-30T06:47:22.004Z,0.10
2019-01-30T06:49:52.519Z,0.10
2019-01-30T06:52:22.908Z,0.10
2019-01-30T06:54:53.302Z,0.20
2019-01-30T06:57:23.604Z,0.10
2019-01-30T06:59:54.001Z,0.10
2019-01-30T07:02:32.164Z,0.20
2019-01-30T07:04:56.513Z,0.20
2019-01-30T07:07:26.834Z,0.20
2019-01-30T07:09:57.619Z,0.20
2019-01-30T07:12:28.021Z,0.30
2019-01-30T07:14:58.323Z,0.30
2019-01-30T07:17:28.671Z,0.30
2019-01-30T07:19:59.093Z,0.30
2019-01-30T07:22:29.501Z,0.30
2019-01-30T07:24:59.904Z,0.30
2019-01-30T07:27:30.990Z,0.30
2019-01-30T07:30:01.276Z,0.40
2019-01-30T07:32:41.945Z,0.40
2019-01-30T07:35:07.417Z,0.40
2019-01-30T07:37:37.884Z,0.40
2019-01-30T07:40:09.260Z,0.40
2019-01-30T07:42:39.545Z,0.40
2019-01-30T07:45:12.333Z,0.40
2019-01-30T07:47:42.766Z,0.50
2019-01-30T07:50:13.190Z,0.50
2019-01-30T07:52:43.574Z,0.50
2019-01-30T07:55:15.607Z,0.50
2019-01-30T07:57:47.224Z,0.50
2019-01-30T08:00:29.199Z,0.50
2019-01-30T08:02:59.561Z,0.50
2019-01-30T08:05:29.973Z,0.50
2019-01-30T08:08:00.403Z,0.50
2019-01-30T08:10:52.694Z,0.60
2019-01-30T08:13:30.268Z,0.60
2019-01-30T08:16:02.620Z,0.60
2019-01-30T08:18:36.196Z,0.60
2019-01-30T08:21:06.773Z,0.60
2019-01-30T08:23:37.356Z,0.70
2019-01-30T08:26:07.991Z,0.60
2019-01-30T08:28:38.605Z,0.70
2019-01-30T08:31:09.250Z,0.70
2019-01-30T08:33:40.871Z,0.80
2019-01-30T08:36:12.830Z,0.80
2019-01-30T08:38:43.427Z,0.80
2019-01-30T08:41:14.688Z,0.80
2019-01-30T08:43:44.967Z,0.80
2019-01-30T08:46:15.427Z,0.80
2019-01-30T08:48:45.764Z,0.90
2019-01-30T08:51:16.147Z,0.90
2019-01-30T08:53:46.472Z,0.90
2019-01-30T08:56:16.832Z,1.00
2019-01-30T08:58:47.338Z,1.00
2019-01-30T09:01:17.767Z,1.00
2019-01-30T09:03:48.230Z,1.10
2019-01-30T09:06:18.668Z,1.10
2019-01-30T09:08:49.182Z,1.20
2019-01-30T09:11:19.599Z,1.20
2019-01-30T09:13:49.920Z,1.20
2019-01-30T09:16:20.213Z,1.30
2019-01-30T09:18:50.452Z,1.30
2019-01-30T09:21:20.778Z,1.30
2019-01-30T09:23:51.207Z,1.40
2019-01-30T09:26:21.519Z,1.40
2019-01-30T09:28:51.829Z,1.50
2019-01-30T09:31:22.091Z,1.50
2019-01-30T09:33:52.363Z,1.60
2019-01-30T09:36:22.662Z,1.60
2019-01-30T09:38:52.937Z,1.60
2019-01-30T09:41:23.258Z,1.70
2019-01-30T09:43:53.576Z,1.70
2019-01-30T09:46:23.973Z,1.70
2019-01-30T09:48:54.450Z,1.70
2019-01-30T09:51:24.737Z,1.80
2019-01-30T09:53:57.607Z,1.80
2019-01-30T09:56:27.677Z,1.90
2019-01-30T09:58:58.083Z,1.90
2019-01-30T10:01:28.508Z,1.90
2019-01-30T10:03:58.864Z,1.90
2019-01-30T10:06:29.190Z,1.90
2019-01-30T10:09:01.083Z,1.90
2019-01-30T10:11:33.201Z,2.00
2019-01-30T10:14:03.611Z,2.00
2019-01-30T10:16:34.178Z,2.00
2019-01-30T10:19:04.974Z,2.10
2019-01-30T10:21:35.401Z,2.10
2019-01-30T10:24:05.719Z,2.10
2019-01-30T10:26:36.051Z,2.10
2019-01-30T10:29:06.453Z,2.10
2019-01-30T10:31:36.734Z,2.20
2019-01-30T10:34:08.575Z,2.20
2019-01-30T10:36:38.976Z,2.20
2019-01-30T10:39:11.135Z,2.30
2019-01-30T10:41:41.551Z,2.30
2019-01-30T10:44:11.911Z,2.40
2019-01-30T10:46:42.307Z,2.50
2019-01-30T10:49:13.536Z,2.50
2019-01-30T10:51:43.866Z,2.60
2019-01-30T10:54:14.139Z,2.60
2019-01-30T10:56:44.751Z,2.60
2019-01-30T10:59:16.126Z,2.60
2019-01-30T11:01:47.528Z,2.70
2019-01-30T11:04:17.918Z,2.70
2019-01-30T11:06:48.664Z,2.70
2019-01-30T11:09:20.669Z,2.60
2019-01-30T11:11:52.811Z,2.70
2019-01-30T11:14:23.187Z,2.70
2019-01-30T11:16:53.666Z,2.70
2019-01-30T11:19:24.457Z,2.70
2019-01-30T11:21:54.861Z,2.70
2019-01-30T11:24:26.637Z,2.80
2019-01-30T11:26:57.015Z,3.00
2019-01-30T11:29:28.947Z,3.00
2019-01-30T11:31:59.941Z,2.90
2019-01-30T11:34:30.334Z,2.70
2019-01-30T11:37:00.845Z,2.80
2019-01-30T11:39:31.211Z,2.80
2019-01-30T11:42:03.264Z,2.80
2019-01-30T11:44:35.879Z,2.90
2019-01-30T11:47:06.358Z,2.90
2019-01-30T11:49:36.727Z,2.90
2019-01-30T11:52:07.365Z,2.90
2019-01-30T11:54:38.840Z,3.00
2019-01-30T11:57:09.806Z,3.00
2019-01-30T11:59:40.205Z,3.10
2019-01-30T12:02:12.025Z,2.90
2019-01-30T12:04:42.391Z,3.00
2019-01-30T12:07:12.888Z,3.00
2019-01-30T12:09:43.327Z,3.00
2019-01-30T12:12:13.781Z,3.10
2019-01-30T12:14:44.349Z,3.20
2019-01-30T12:17:14.755Z,3.10
2019-01-30T12:19:46.706Z,3.10
2019-01-30T12:22:17.037Z,3.00
2019-01-30T12:24:48.539Z,3.10
2019-01-30T12:27:19.229Z,3.20
2019-01-30T12:29:49.667Z,3.20
2019-01-30T12:32:19.963Z,3.30
2019-01-30T12:34:51.836Z,3.30
2019-01-30T12:37:22.237Z,3.20
2019-01-30T12:39:54.054Z,3.10
2019-01-30T12:42:24.446Z,3.10
2019-01-30T12:44:54.906Z,3.10
2019-01-30T12:47:25.322Z,3.20
2019-01-30T12:49:55.832Z,3.30
2019-01-30T12:52:26.285Z,3.20
2019-01-30T12:54:56.692Z,3.30
2019-01-30T12:57:27.079Z,3.20
2019-01-30T12:59:57.560Z,3.10
2019-01-30T13:02:28.017Z,3.20
2019-01-30T13:04:58.468Z,3.30
2019-01-30T13:07:28.825Z,3.20
2019-01-30T13:09:59.188Z,3.30
2019-01-30T13:12:29.640Z,3.20
2019-01-30T13:15:00.011Z,3.20
2019-01-30T13:17:30.919Z,3.30
2019-01-30T13:20:01.253Z,3.40
2019-01-30T13:22:31.941Z,3.40
2019-01-30T13:25:02.279Z,3.40
2019-01-30T13:27:32.633Z,3.30
2019-01-30T13:30:02.941Z,3.30
2019-01-30T13:32:33.326Z,3.20
2019-01-30T13:35:03.865Z,3.30
2019-01-30T13:37:34.219Z,3.30
2019-01-30T13:40:11.892Z,3.30
2019-01-30T13:42:43.918Z,3.20
2019-01-30T13:45:14.550Z,3.30
2019-01-30T13:47:46.016Z,3.30
2019-01-30T13:50:20.340Z,3.30
2019-01-30T13:52:52.688Z,3.10
2019-01-30T13:55:23.899Z,3.20
2019-01-30T13:57:54.217Z,3.30
2019-01-30T14:00:29.792Z,3.40
2019-01-30T14:03:00.347Z,3.30
2019-01-30T14:05:30.966Z,3.40
2019-01-30T14:08:02.040Z,3.40
2019-01-30T14:10:32.713Z,3.30
2019-01-30T14:13:03.108Z,3.20
2019-01-30T14:15:34.389Z,3.30
2019-01-30T14:18:05.622Z,3.30
2019-01-30T14:20:36.053Z,3.20
2019-01-30T14:23:06.669Z,3.30
2019-01-30T14:25:37.451Z,3.30
2019-01-30T14:28:07.821Z,3.30
2019-01-30T14:30:46.391Z,3.30
2019-01-30T14:33:22.944Z,3.30
2019-01-30T14:35:53.599Z,3.20
2019-01-30T14:38:26.590Z,3.20
2019-01-30T14:40:57.987Z,3.20
2019-01-30T14:43:30.201Z,3.20
2019-01-30T14:46:00.768Z,3.10
2019-01-30T14:48:31.275Z,3.10
2019-01-30T14:51:01.804Z,3.10
2019-01-30T14:53:39.065Z,3.20
2019-01-30T14:56:16.249Z,3.20
2019-01-30T14:58:46.732Z,3.30
2019-01-30T15:01:17.132Z,3.20
2019-01-30T15:03:48.097Z,3.10
2019-01-30T15:06:25.656Z,3.00
2019-01-30T15:09:03.253Z,3.10
2019-01-30T15:11:35.745Z,3.00
2019-01-30T15:14:08.089Z,3.00
2019-01-30T15:16:45.186Z,3.00
2019-01-30T15:19:22.081Z,3.00
2019-01-30T15:22:00.163Z,3.00
2019-01-30T15:24:32.035Z,2.90
2019-01-30T15:27:10.272Z,3.00
2019-01-30T15:29:40.938Z,3.00
2019-01-30T15:32:13.859Z,3.00
2019-01-30T15:34:44.428Z,2.90
2019-01-30T15:37:17.750Z,2.90
2019-01-30T15:39:48.337Z,2.90
2019-01-30T15:42:23.824Z,2.90
2019-01-30T15:44:54.554Z,2.90
2019-01-30T15:47:27.368Z,2.90
2019-01-30T15:50:11.704Z,2.80
2019-01-30T15:55:58.923Z,2.80
2019-01-30T15:59:09.127Z,2.80
2019-01-30T16:01:42.286Z,2.80
2019-01-30T16:04:13.817Z,2.70
2019-01-30T16:06:44.324Z,2.70
2019-01-30T16:09:14.647Z,2.60
2019-01-30T16:11:45.116Z,2.60
2019-01-30T16:14:19.362Z,2.60
2019-01-30T16:16:49.662Z,2.60
2019-01-30T16:19:20.351Z,2.60
2019-01-30T16:21:50.735Z,2.60
2019-01-30T16:24:21.091Z,2.50
2019-01-30T16:26:51.807Z,2.50
2019-01-30T16:29:23.039Z,2.40
2019-01-30T16:31:53.317Z,2.40
2019-01-30T16:34:23.607Z,2.40
2019-01-30T16:36:53.907Z,2.40
2019-01-30T16:39:24.423Z,2.40
2019-01-30T16:41:54.957Z,2.50
2019-01-30T16:44:25.439Z,2.40
2019-01-30T16:46:55.788Z,2.40
2019-01-30T16:49:27.142Z,2.30
2019-01-30T16:51:57.663Z,2.20
2019-01-30T16:54:28.085Z,2.30
2019-01-30T16:57:00.194Z,2.20
2019-01-30T16:59:30.678Z,2.20
2019-01-30T17:02:04.555Z,2.10
2019-01-30T17:04:39.392Z,2.10
2019-01-30T17:07:11.819Z,2.10
2019-01-30T17:09:42.279Z,2.10
2019-01-30T17:12:25.021Z,2.00
2019-01-30T17:14:57.807Z,2.00
2019-01-30T17:17:28.681Z,1.90
2019-01-30T17:19:59.296Z,1.80
2019-01-30T17:22:36.036Z,1.80
2019-01-30T17:25:15.073Z,1.70
2019-01-30T17:27:48.676Z,1.70
2019-01-30T17:30:38.219Z,1.60
2019-01-30T17:33:10.208Z,1.60
2019-01-30T17:35:49.386Z,1.60
2019-01-30T17:38:19.933Z,1.60
2019-01-30T17:40:52.529Z,1.50
2019-01-30T17:43:22.935Z,1.50
2019-01-30T17:45:58.602Z,1.50
2019-01-30T17:48:33.766Z,1.50
2019-01-30T17:51:15.484Z,1.40
2019-01-30T17:53:45.957Z,1.50
2019-01-30T17:56:16.349Z,1.40
2019-01-30T17:58:48.309Z,1.40
2019-01-30T18:01:20.724Z,1.40
2019-01-30T18:03:51.152Z,1.40
2019-01-30T18:06:29.461Z,1.40
2019-01-30T18:08:55.227Z,1.40
2019-01-30T18:11:25.589Z,1.40
2019-01-30T18:13:56.119Z,1.40
2019-01-30T18:16:29.084Z,1.30
2019-01-30T18:18:59.498Z,1.30
2019-01-30T18:21:32.046Z,1.30
2019-01-30T18:24:04.205Z,1.20
2019-01-30T18:26:38.185Z,1.20
2019-01-30T18:29:08.645Z,1.20
2019-01-30T18:31:42.318Z,1.20
2019-01-30T18:34:12.662Z,1.20
2019-01-30T18:36:42.993Z,1.10
2019-01-30T18:39:13.418Z,1.00
2019-01-30T18:41:43.849Z,1.00
2019-01-30T18:44:14.244Z,1.10
2019-01-30T18:46:44.630Z,1.00
2019-01-30T18:49:15.165Z,1.10
2019-01-30T18:51:45.657Z,1.10
2019-01-30T18:54:16.090Z,1.10
2019-01-30T18:56:46.467Z,1.10
2019-01-30T18:59:17.048Z,1.10
2019-01-30T19:01:47.838Z,1.10
2019-01-30T19:04:18.315Z,1.10
2019-01-30T19:06:52.353Z,1.10
2019-01-30T19:09:20.967Z,1.10
2019-01-30T19:11:54.134Z,1.10
2019-01-30T19:14:24.800Z,1.10
2019-01-30T19:16:55.252Z,1.20
2019-01-30T19:19:27.271Z,1.20
2019-01-30T19:21:57.685Z,1.20
2019-01-30T19:24:28.576Z,1.10
2019-01-30T19:26:59.070Z,1.10
2019-01-30T19:29:31.123Z,1.10
2019-01-30T19:32:01.610Z,1.10
2019-01-30T19:34:32.119Z,1.10
2019-01-30T19:37:04.004Z,1.20
2019-01-30T19:39:34.648Z,1.20
2019-01-30T19:42:05.156Z,1.20
2019-01-30T19:44:35.605Z,1.20
2019-01-30T19:47:06.068Z,1.10
2019-01-30T19:49:36.468Z,1.10
2019-01-30T19:52:06.842Z,1.10
2019-01-30T19:54:37.182Z,1.10
2019-01-30T19:57:07.645Z,1.10
2019-01-30T19:59:39.160Z,1.10
2019-01-30T20:02:09.797Z,1.10
2019-01-30T20:04:41.898Z,1.10
2019-01-30T20:07:14.758Z,1.10
2019-01-30T20:09:45.067Z,1.10
2019-01-30T20:12:18.452Z,1.10
2019-01-30T20:14:48.858Z,1.10
2019-01-30T20:17:19.448Z,1.00
2019-01-30T20:19:49.849Z,1.00
2019-01-30T20:22:20.180Z,1.10
2019-01-30T20:24:50.802Z,1.10
2019-01-30T20:27:21.330Z,1.10
2019-01-30T20:29:51.767Z,1.10
2019-01-30T20:32:24.277Z,1.10
2019-01-30T20:34:54.680Z,1.10
2019-01-30T20:37:26.361Z,1.10
2019-01-30T20:39:56.965Z,1.10
2019-01-30T20:42:27.346Z,1.10
2019-01-30T20:44:59.081Z,1.10
2019-01-30T20:47:32.291Z,1.10
2019-01-30T20:50:03.572Z,1.10
2019-01-30T20:52:34.081Z,1.10
2019-01-30T20:55:05.118Z,1.10
2019-01-30T20:57:35.459Z,1.10
2019-01-30T21:00:19.408Z,1.10
2019-01-30T21:02:49.870Z,1.10
2019-01-30T21:05:21.830Z,1.10
2019-01-30T21:07:52.370Z,1.10
2019-01-30T21:10:30.847Z,1.10
2019-01-30T21:13:01.368Z,1.10
2019-01-30T21:15:31.785Z,1.00
2019-01-30T21:18:02.138Z,1.00
2019-01-30T21:20:32.630Z,1.00
2019-01-30T21:23:02.918Z,1.00
2019-01-30T21:25:33.387Z,1.00
2019-01-30T21:28:03.802Z,0.90
2019-01-30T21:30:35.948Z,0.90
2019-01-30T21:33:06.316Z,0.90
2019-01-30T21:35:36.676Z,0.90
2019-01-30T21:38:07.477Z,1.00
2019-01-30T21:40:37.927Z,0.90
2019-01-30T21:43:08.304Z,0.90
2019-01-30T21:45:40.192Z,0.90
2019-01-30T21:48:10.411Z,0.90
2019-01-30T21:50:40.841Z,0.90
2019-01-30T21:53:11.210Z,0.80
2019-01-30T21:55:41.517Z,0.80
2019-01-30T21:58:11.825Z,0.80
2019-01-30T22:00:42.396Z,0.70
2019-01-30T22:03:12.822Z,0.70
2019-01-30T22:05:43.409Z,0.80
2019-01-30T22:08:15.341Z,0.80
2019-01-30T22:10:45.695Z,0.80
2019-01-30T22:13:16.257Z,0.80
2019-01-30T22:15:46.755Z,0.80
2019-01-30T22:18:17.279Z,0.80
2019-01-30T22:20:47.707Z,0.70
2019-01-30T22:23:25.882Z,0.70
2019-01-30T22:25:56.428Z,0.70
2019-01-30T22:28:26.896Z,0.70
2019-01-30T22:30:57.415Z,0.70
2019-01-30T22:33:27.706Z,0.60
2019-01-30T22:35:58.161Z,0.60
2019-01-30T22:38:29.428Z,0.60
2019-01-30T22:40:59.857Z,0.60
2019-01-30T22:43:30.344Z,0.50
2019-01-30T22:46:00.708Z,0.60
2019-01-30T22:48:31.112Z,0.60
2019-01-30T22:51:01.405Z,0.60
2019-01-30T22:53:31.837Z,0.60
2019-01-30T22:56:02.885Z,0.60
2019-01-30T22:58:33.191Z,0.60
2019-01-30T23:01:19.898Z,0.60
2019-01-30T23:04:21.856Z,0.60
2019-01-30T23:07:05.574Z,0.50
2019-01-30T23:10:26.019Z,0.50
2019-01-30T23:13:07.575Z,0.60
2019-01-30T23:16:03.391Z,0.60
2019-01-30T23:19:08.423Z,0.60
2019-01-30T23:21:48.453Z,0.60
2019-01-30T23:24:56.123Z,0.60
2019-01-30T23:27:38.837Z,0.60
2019-01-30T23:30:29.025Z,0.60
2019-01-30T23:33:40.923Z,0.60
2019-01-30T23:36:43.340Z,0.70
2019-01-30T23:39:57.891Z,0.70
2019-01-30T23:43:14.775Z,0.70
2019-01-30T23:46:29.717Z,0.70
2019-01-30T23:49:53.703Z,0.70
2019-01-30T23:53:01.713Z,0.70
2019-01-30T23:56:12.873Z,0.80
2019-01-30T23:59:09.597Z,0.80
